createdAt,value
2023-02-18T00:00:30.681Z,10
2023-02-18T00:01:37.528Z,9
2023-02-18T00:02:44.448Z,10
2023-02-18T00:03:51.288Z,9
2023-02-18T00:04:58.114Z,9
2023-02-18T00:06:07.019Z,9
2023-02-18T00:07:17.603Z,8
2023-02-18T00:08:24.523Z,10
2023-02-18T00:09:31.315Z,11
2023-02-18T00:10:38.323Z,10
2023-02-18T00:11:46.019Z,10
2023-02-18T00:12:52.835Z,9
2023-02-18T00:13:59.699Z,10
2023-02-18T00:15:06.782Z,11
2023-02-18T00:16:13.692Z,11
2023-02-18T00:17:20.523Z,11
2023-02-18T00:18:27.329Z,13
2023-02-18T00:19:34.226Z,12
2023-02-18T00:20:41.255Z,11
2023-02-18T00:21:48.113Z,10
2023-02-18T00:22:55.014Z,8
2023-02-18T00:24:02.185Z,11
2023-02-18T00:25:09.115Z,12
2023-02-18T00:26:17.843Z,13
2023-02-18T00:27:25.428Z,12
2023-02-18T00:28:32.248Z,11
2023-02-18T00:29:39.186Z,13
2023-02-18T00:30:46.062Z,13
2023-02-18T00:31:52.970Z,13
2023-02-18T00:33:00.550Z,13
2023-02-18T00:34:07.434Z,13
2023-02-18T00:35:14.271Z,11
2023-02-18T00:36:21.142Z,14
2023-02-18T00:37:28.066Z,13
2023-02-18T00:38:35.007Z,13
2023-02-18T00:39:42.818Z,19
2023-02-18T00:40:49.700Z,20
2023-02-18T00:41:57.334Z,17
2023-02-18T00:43:04.354Z,14
2023-02-18T00:44:11.275Z,11
2023-02-18T00:45:18.250Z,12
2023-02-18T00:46:25.610Z,13
2023-02-18T00:47:32.444Z,11
2023-02-18T00:48:39.535Z,12
2023-02-18T00:49:47.227Z,10
2023-02-18T00:50:54.853Z,10
2023-02-18T00:52:01.823Z,10
2023-02-18T00:53:08.804Z,11
2023-02-18T00:54:15.634Z,11
2023-02-18T00:55:22.984Z,13
2023-02-18T00:56:31.425Z,13
2023-02-18T00:57:38.221Z,11
2023-02-18T00:58:45.185Z,9
2023-02-18T00:59:52.974Z,6
2023-02-18T01:00:59.857Z,4
2023-02-18T01:02:06.695Z,8
2023-02-18T01:03:14.424Z,4
2023-02-18T01:04:21.349Z,4
2023-02-18T01:05:28.172Z,4
2023-02-18T01:06:35.088Z,3
2023-02-18T01:07:43.865Z,3
2023-02-18T01:08:50.660Z,3
2023-02-18T01:09:57.560Z,3
2023-02-18T01:11:04.427Z,3
2023-02-18T01:12:12.270Z,4
2023-02-18T01:13:19.162Z,3
2023-02-18T01:14:26.124Z,3
2023-02-18T01:15:33.675Z,3
2023-02-18T01:16:40.597Z,3
2023-02-18T01:17:47.371Z,3
2023-02-18T01:18:54.244Z,3
2023-02-18T01:20:01.068Z,3
2023-02-18T01:21:09.087Z,3
2023-02-18T01:22:15.852Z,3
2023-02-18T01:23:22.760Z,3
2023-02-18T01:24:29.611Z,4
2023-02-18T01:25:37.464Z,3
2023-02-18T01:26:44.460Z,5
2023-02-18T01:27:52.851Z,4
2023-02-18T01:28:59.774Z,3
2023-02-18T01:30:07.632Z,3
2023-02-18T01:31:14.677Z,3
2023-02-18T01:32:22.307Z,3
2023-02-18T01:33:29.088Z,4
2023-02-18T01:34:36.745Z,3
2023-02-18T01:35:43.649Z,3
2023-02-18T01:36:50.661Z,4
2023-02-18T01:37:58.367Z,4
2023-02-18T01:39:06.029Z,4
2023-02-18T01:40:12.828Z,3
2023-02-18T01:41:19.843Z,4
2023-02-18T01:42:26.720Z,4
2023-02-18T01:43:36.448Z,5
2023-02-18T01:44:43.395Z,3
2023-02-18T01:45:50.275Z,4
2023-02-18T01:47:02.176Z,4
2023-02-18T01:48:09.062Z,4
2023-02-18T01:49:19.558Z,4
2023-02-18T01:50:31.469Z,4
2023-02-18T01:51:38.345Z,4
2023-02-18T01:52:47.240Z,4
2023-02-18T01:53:54.120Z,4
2023-02-18T01:55:06.918Z,4
2023-02-18T01:56:13.785Z,5
2023-02-18T01:57:25.294Z,4
2023-02-18T01:58:35.728Z,5
2023-02-18T01:59:42.641Z,6
2023-02-18T02:00:51.263Z,4
2023-02-18T02:01:58.962Z,5
2023-02-18T02:03:05.706Z,5
2023-02-18T02:04:12.517Z,4
2023-02-18T02:05:19.712Z,4
2023-02-18T02:06:26.606Z,5
2023-02-18T02:07:34.416Z,5
2023-02-18T02:08:41.356Z,5
2023-02-18T02:09:48.220Z,4
2023-02-18T02:10:55.192Z,4
2023-02-18T02:12:07.084Z,5
2023-02-18T02:13:20.093Z,5
2023-02-18T02:14:37.025Z,5
2023-02-18T02:15:54.000Z,4
2023-02-18T02:17:05.848Z,4
2023-02-18T02:18:20.612Z,4
2023-02-18T02:19:38.513Z,4
2023-02-18T02:20:57.094Z,5
2023-02-18T02:22:09.400Z,6
2023-02-18T02:23:27.179Z,6
2023-02-18T02:24:44.153Z,7
2023-02-18T02:25:56.056Z,9
2023-02-18T02:27:10.574Z,9
2023-02-18T02:28:17.476Z,9
2023-02-18T02:29:34.436Z,11
2023-02-18T02:30:42.183Z,10
2023-02-18T02:31:59.920Z,9
2023-02-18T02:33:14.936Z,10
2023-02-18T02:34:31.875Z,9
2023-02-18T02:35:48.941Z,9
2023-02-18T02:36:56.560Z,10
2023-02-18T02:38:08.640Z,8
2023-02-18T02:39:15.525Z,7
2023-02-18T02:40:22.415Z,8
2023-02-18T02:41:39.348Z,8
2023-02-18T02:42:46.156Z,7
2023-02-18T02:43:55.861Z,9
2023-02-18T02:45:07.758Z,7
2023-02-18T02:46:24.814Z,10
2023-02-18T02:47:34.319Z,8
2023-02-18T02:48:51.258Z,8
2023-02-18T02:50:08.357Z,7
2023-02-18T02:51:20.300Z,6
2023-02-18T02:52:32.213Z,6
2023-02-18T02:53:44.941Z,5
2023-02-18T02:54:51.822Z,5
2023-02-18T02:55:59.412Z,6
2023-02-18T02:57:06.318Z,5
2023-02-18T02:58:21.194Z,5
2023-02-18T02:59:29.023Z,4
2023-02-18T03:00:35.885Z,5
2023-02-18T03:01:50.573Z,5
2023-02-18T03:03:02.508Z,4
2023-02-18T03:04:15.124Z,5
2023-02-18T03:05:21.981Z,5
2023-02-18T03:06:31.470Z,4
2023-02-18T03:07:43.397Z,4
2023-02-18T03:08:58.357Z,4
2023-02-18T03:10:13.257Z,4
2023-02-18T03:11:20.183Z,4
2023-02-18T03:12:27.047Z,4
2023-02-18T03:13:42.006Z,3
2023-02-18T03:14:57.654Z,4
2023-02-18T03:16:14.659Z,3
2023-02-18T03:17:26.476Z,3
2023-02-18T03:18:33.374Z,4
2023-02-18T03:19:40.202Z,3
2023-02-18T03:20:52.050Z,3
2023-02-18T03:22:06.650Z,3
2023-02-18T03:23:16.817Z,4
2023-02-18T03:24:23.922Z,3
2023-02-18T03:25:33.362Z,3
2023-02-18T03:26:40.276Z,3
2023-02-18T03:27:47.986Z,3
2023-02-18T03:29:00.718Z,3
2023-02-18T03:30:09.290Z,4
2023-02-18T03:31:16.223Z,3
2023-02-18T03:32:23.009Z,3
2023-02-18T03:33:30.974Z,3
2023-02-18T03:34:43.871Z,3
2023-02-18T03:35:50.699Z,2
2023-02-18T03:36:57.642Z,2
2023-02-18T03:38:04.514Z,4
2023-02-18T03:39:16.509Z,3
2023-02-18T03:40:24.172Z,3
2023-02-18T03:41:34.973Z,3
2023-02-18T03:42:41.832Z,4
2023-02-18T03:43:49.577Z,2
2023-02-18T03:44:56.474Z,2
2023-02-18T03:46:03.453Z,3
2023-02-18T03:47:10.283Z,3
2023-02-18T03:48:18.135Z,3
2023-02-18T03:49:24.924Z,3
2023-02-18T03:50:32.547Z,3
2023-02-18T03:51:39.391Z,4
2023-02-18T03:52:46.275Z,4
2023-02-18T03:53:53.432Z,4
2023-02-18T03:55:02.419Z,3
2023-02-18T03:56:09.678Z,3
2023-02-18T03:57:16.343Z,3
2023-02-18T03:58:23.219Z,4
2023-02-18T03:59:29.979Z,4
2023-02-18T04:00:36.983Z,3
2023-02-18T04:01:44.027Z,3
2023-02-18T04:02:50.989Z,3
2023-02-18T04:03:57.997Z,4
2023-02-18T04:05:05.724Z,3
2023-02-18T04:06:13.429Z,3
2023-02-18T04:07:21.439Z,4
2023-02-18T04:08:28.433Z,4
2023-02-18T04:09:35.323Z,4
2023-02-18T04:10:42.368Z,4
2023-02-18T04:11:49.201Z,4
2023-02-18T04:12:56.072Z,4
2023-02-18T04:14:02.989Z,4
2023-02-18T04:15:09.879Z,3
2023-02-18T04:16:16.832Z,4
2023-02-18T04:17:25.228Z,4
2023-02-18T04:18:32.058Z,3
2023-02-18T04:19:38.970Z,4
2023-02-18T04:20:45.942Z,3
2023-02-18T04:21:54.435Z,4
2023-02-18T04:23:02.956Z,4
2023-02-18T04:24:10.145Z,3
2023-02-18T04:25:17.031Z,4
2023-02-18T04:26:24.850Z,4
2023-02-18T04:27:31.711Z,5
2023-02-18T04:28:38.733Z,4
2023-02-18T04:29:46.382Z,4
2023-02-18T04:30:53.640Z,4
2023-02-18T04:32:00.577Z,4
2023-02-18T04:33:08.568Z,4
2023-02-18T04:34:16.512Z,4
2023-02-18T04:35:26.293Z,3
2023-02-18T04:36:33.229Z,4
2023-02-18T04:37:40.035Z,4
2023-02-18T04:38:46.948Z,5
2023-02-18T04:39:53.833Z,4
2023-02-18T04:41:02.756Z,5
2023-02-18T04:42:09.557Z,5
2023-02-18T04:43:16.642Z,5
2023-02-18T04:44:23.460Z,5
2023-02-18T04:45:30.508Z,6
2023-02-18T04:46:37.616Z,5
2023-02-18T04:47:45.345Z,6
2023-02-18T04:48:52.187Z,5
2023-02-18T04:49:59.820Z,6
2023-02-18T04:51:07.648Z,8
2023-02-18T04:52:15.399Z,7
2023-02-18T04:53:23.387Z,7
2023-02-18T04:54:30.251Z,6
2023-02-18T04:55:37.104Z,7
2023-02-18T04:56:44.128Z,9
2023-02-18T04:57:50.971Z,9
2023-02-18T04:58:58.773Z,7
2023-02-18T05:00:06.456Z,6
2023-02-18T05:01:13.624Z,7
2023-02-18T05:02:21.314Z,7
2023-02-18T05:03:29.043Z,5
2023-02-18T05:04:36.744Z,5
2023-02-18T05:05:43.622Z,4
2023-02-18T05:06:51.297Z,5
2023-02-18T05:07:58.171Z,6
2023-02-18T05:09:05.805Z,7
2023-02-18T05:10:12.811Z,6
2023-02-18T05:11:19.754Z,5
2023-02-18T05:12:26.552Z,6
2023-02-18T05:13:33.433Z,6
2023-02-18T05:14:40.299Z,6
2023-02-18T05:15:48.040Z,6
2023-02-18T05:16:54.898Z,7
2023-02-18T05:18:01.789Z,5
2023-02-18T05:19:09.442Z,6
2023-02-18T05:20:19.538Z,6
2023-02-18T05:21:27.220Z,4
2023-02-18T05:22:34.090Z,5
2023-02-18T05:23:40.989Z,4
2023-02-18T05:24:49.035Z,6
2023-02-18T05:25:55.955Z,6
2023-02-18T05:27:02.795Z,3
2023-02-18T05:28:09.671Z,4
2023-02-18T05:29:17.292Z,5
2023-02-18T05:30:24.386Z,6
2023-02-18T05:31:31.253Z,6
2023-02-18T05:32:39.709Z,7
2023-02-18T05:33:46.593Z,8
2023-02-18T05:34:55.029Z,8
2023-02-18T05:36:02.074Z,8
2023-02-18T05:37:09.070Z,7
2023-02-18T05:38:17.520Z,9
2023-02-18T05:39:24.344Z,8
2023-02-18T05:40:31.386Z,7
2023-02-18T05:41:38.354Z,7
2023-02-18T05:42:45.174Z,10
2023-02-18T05:43:52.073Z,7
2023-02-18T05:45:05.611Z,10
2023-02-18T05:46:12.616Z,9
2023-02-18T05:47:20.553Z,8
2023-02-18T05:48:27.361Z,9
2023-02-18T05:49:34.208Z,7
2023-02-18T05:50:41.084Z,6
2023-02-18T05:51:47.921Z,4
2023-02-18T05:52:54.821Z,6
2023-02-18T05:54:01.641Z,7
2023-02-18T05:55:09.507Z,7
2023-02-18T05:56:16.437Z,9
2023-02-18T05:57:23.196Z,5
2023-02-18T05:58:30.077Z,4
2023-02-18T05:59:36.884Z,5
2023-02-18T06:00:43.892Z,4
2023-02-18T06:01:51.533Z,6
2023-02-18T06:02:58.583Z,4
2023-02-18T06:04:05.415Z,5
2023-02-18T06:05:12.318Z,6
2023-02-18T06:06:20.247Z,6
2023-02-18T06:07:27.493Z,5
2023-02-18T06:08:34.495Z,5
2023-02-18T06:09:42.320Z,5
2023-02-18T06:10:49.389Z,6
2023-02-18T06:11:56.301Z,5
2023-02-18T06:13:03.338Z,5
2023-02-18T06:14:10.997Z,5
2023-02-18T06:15:18.659Z,4
2023-02-18T06:16:25.642Z,5
2023-02-18T06:17:34.561Z,6
2023-02-18T06:18:42.288Z,5
2023-02-18T06:19:51.759Z,5
2023-02-18T06:20:59.365Z,5
2023-02-18T06:22:06.370Z,5
2023-02-18T06:23:13.175Z,5
2023-02-18T06:24:20.825Z,6
2023-02-18T06:25:28.478Z,5
2023-02-18T06:26:35.211Z,5
2023-02-18T06:27:42.136Z,5
2023-02-18T06:28:48.955Z,6
2023-02-18T06:29:56.832Z,8
2023-02-18T06:31:05.185Z,8
2023-02-18T06:32:12.011Z,7
2023-02-18T06:33:19.067Z,7
2023-02-18T06:34:26.034Z,6
2023-02-18T06:35:33.058Z,6
2023-02-18T06:36:40.011Z,5
2023-02-18T06:37:47.761Z,6
2023-02-18T06:38:54.677Z,6
2023-02-18T06:40:01.572Z,5
2023-02-18T06:41:08.778Z,5
2023-02-18T06:42:16.477Z,6
2023-02-18T06:43:24.670Z,5
2023-02-18T06:44:31.581Z,5
2023-02-18T06:45:40.138Z,5
2023-02-18T06:46:48.906Z,4
2023-02-18T06:47:57.696Z,5
2023-02-18T06:49:04.591Z,5
2023-02-18T06:50:13.547Z,5
2023-02-18T06:51:20.419Z,5
2023-02-18T06:52:28.099Z,4
2023-02-18T06:53:34.972Z,4
2023-02-18T06:54:43.507Z,5
2023-02-18T06:55:51.207Z,6
2023-02-18T06:56:58.155Z,4
2023-02-18T06:58:05.059Z,5
2023-02-18T06:59:11.945Z,6
2023-02-18T07:00:19.554Z,5
2023-02-18T07:01:27.890Z,6
2023-02-18T07:02:34.754Z,6
2023-02-18T07:03:41.654Z,7
2023-02-18T07:04:50.371Z,6
2023-02-18T07:05:58.215Z,8
2023-02-18T07:07:05.790Z,7
2023-02-18T07:08:14.051Z,7
2023-02-18T07:11:49.068Z,9
2023-02-18T07:12:56.227Z,9
2023-02-18T07:15:54.865Z,7
2023-02-18T07:17:03.025Z,6
2023-02-18T07:18:11.034Z,8
2023-02-18T07:19:17.937Z,6
2023-02-18T07:20:50.822Z,6
2023-02-18T07:23:20.716Z,7
2023-02-18T07:25:58.562Z,8
2023-02-18T07:30:21.618Z,6
2023-02-18T07:31:28.865Z,6
2023-02-18T07:32:36.130Z,7
2023-02-18T07:33:46.196Z,6
2023-02-18T07:35:51.727Z,6
2023-02-18T07:36:59.552Z,6
2023-02-18T07:38:11.052Z,6
2023-02-18T07:39:18.003Z,6
2023-02-18T07:40:26.542Z,5
2023-02-18T07:41:37.317Z,6
2023-02-18T07:42:46.019Z,6
2023-02-18T07:43:54.085Z,6
2023-02-18T07:45:01.286Z,5
2023-02-18T07:46:11.737Z,7
2023-02-18T07:47:18.606Z,6
2023-02-18T07:48:26.636Z,7
2023-02-18T07:49:33.653Z,6
2023-02-18T07:50:41.401Z,6
2023-02-18T07:51:48.893Z,7
2023-02-18T07:52:58.231Z,8
2023-02-18T07:54:05.339Z,7
2023-02-18T07:55:13.435Z,7
2023-02-18T07:56:35.918Z,8
2023-02-18T07:57:44.156Z,8
2023-02-18T07:58:58.928Z,8
2023-02-18T08:00:09.482Z,8
2023-02-18T08:01:19.445Z,7
2023-02-18T08:02:27.900Z,6
2023-02-18T08:03:37.552Z,7
2023-02-18T08:04:44.765Z,8
2023-02-18T08:05:56.057Z,10
2023-02-18T08:07:03.266Z,8
2023-02-18T08:08:13.741Z,9
2023-02-18T08:09:21.563Z,9
2023-02-18T08:10:28.623Z,9
2023-02-18T08:11:47.973Z,8
2023-02-18T08:12:59.437Z,9
2023-02-18T08:14:07.509Z,8
2023-02-18T08:15:15.435Z,9
2023-02-18T08:16:25.325Z,8
2023-02-18T08:17:32.834Z,8
2023-02-18T08:18:40.114Z,10
2023-02-18T08:19:48.868Z,7
2023-02-18T08:20:55.938Z,9
2023-02-18T08:22:03.185Z,9
2023-02-18T08:23:10.927Z,8
2023-02-18T08:24:18.157Z,10
2023-02-18T08:25:30.701Z,10
2023-02-18T08:26:48.646Z,8
2023-02-18T08:27:49.818Z,10
2023-02-18T08:28:57.709Z,10
2023-02-18T08:30:07.619Z,11
2023-02-18T08:31:16.873Z,13
2023-02-18T08:32:30.005Z,17
2023-02-18T08:33:38.535Z,15
2023-02-18T08:34:46.406Z,17
2023-02-18T08:35:54.699Z,14
2023-02-18T08:37:01.605Z,15
2023-02-18T08:38:11.069Z,17
2023-02-18T08:39:29.249Z,23
2023-02-18T08:40:39.086Z,16
2023-02-18T08:41:48.730Z,17
2023-02-18T08:42:57.458Z,18
2023-02-18T08:44:06.126Z,20
2023-02-18T08:45:14.204Z,17
2023-02-18T08:46:24.919Z,23
2023-02-18T08:48:16.382Z,19
2023-02-18T08:48:42.433Z,13
2023-02-18T08:49:49.509Z,15
2023-02-18T08:50:59.535Z,13
2023-02-18T08:52:15.383Z,13
2023-02-18T08:53:22.600Z,15
2023-02-18T08:54:29.756Z,15
2023-02-18T08:55:38.596Z,18
2023-02-18T08:56:46.480Z,14
2023-02-18T08:57:54.635Z,16
2023-02-18T08:59:01.773Z,15
2023-02-18T09:00:09.992Z,16
2023-02-18T09:01:17.730Z,14
2023-02-18T09:02:25.437Z,15
2023-02-18T09:03:33.144Z,16
2023-02-18T09:04:41.363Z,17
2023-02-18T09:05:56.153Z,17
2023-02-18T09:07:07.478Z,16
2023-02-18T09:08:14.872Z,17
2023-02-18T09:09:22.047Z,16
2023-02-18T09:10:29.221Z,14
2023-02-18T09:11:36.844Z,15
2023-02-18T09:12:46.826Z,17
2023-02-18T09:13:54.236Z,17
2023-02-18T09:15:04.263Z,17
2023-02-18T09:16:14.475Z,17
2023-02-18T09:17:23.165Z,16
2023-02-18T09:18:30.964Z,16
2023-02-18T09:19:41.640Z,16
2023-02-18T09:20:48.817Z,15
2023-02-18T09:21:56.808Z,21
2023-02-18T09:23:03.846Z,16
2023-02-18T09:24:11.836Z,15
2023-02-18T09:25:20.809Z,15
2023-02-18T09:26:30.821Z,17
2023-02-18T09:27:38.748Z,14
2023-02-18T09:28:45.958Z,17
2023-02-18T09:29:53.091Z,19
2023-02-18T09:31:01.411Z,17
2023-02-18T09:32:28.960Z,15
2023-02-18T09:33:25.615Z,17
2023-02-18T09:34:32.950Z,15
2023-02-18T09:35:40.087Z,22
2023-02-18T09:36:48.077Z,13
2023-02-18T09:37:57.983Z,12
2023-02-18T09:39:06.248Z,14
2023-02-18T09:40:16.006Z,17
2023-02-18T09:41:29.488Z,14
2023-02-18T09:42:44.673Z,11
2023-02-18T09:43:55.315Z,13
2023-02-18T09:45:03.089Z,15
2023-02-18T09:46:10.467Z,15
2023-02-18T09:47:32.173Z,13
2023-02-18T09:48:40.089Z,10
2023-02-18T09:49:49.767Z,12
2023-02-18T09:51:02.184Z,8
2023-02-18T09:52:48.896Z,5
2023-02-18T09:53:58.269Z,5
2023-02-18T09:55:06.413Z,5
2023-02-18T09:56:18.766Z,5
2023-02-18T09:57:27.067Z,6
2023-02-18T09:58:40.182Z,6
2023-02-18T10:00:00.438Z,6
2023-02-18T10:01:09.118Z,6
2023-02-18T10:02:30.142Z,8
2023-02-18T10:03:40.377Z,6
2023-02-18T10:04:50.434Z,7
2023-02-18T10:05:58.274Z,16
2023-02-18T10:07:13.334Z,9
2023-02-18T10:08:37.711Z,7
2023-02-18T10:09:50.990Z,9
2023-02-18T10:11:01.554Z,8
2023-02-18T10:12:12.006Z,9
2023-02-18T10:13:20.419Z,9
2023-02-18T10:14:31.222Z,16
2023-02-18T10:15:38.828Z,10
2023-02-18T10:16:48.458Z,9
2023-02-18T10:18:07.223Z,11
2023-02-18T10:19:20.091Z,11
2023-02-18T10:20:27.968Z,15
2023-02-18T10:21:36.996Z,14
2023-02-18T10:22:44.846Z,12
2023-02-18T10:23:53.234Z,11
2023-02-18T10:25:06.228Z,7
2023-02-18T10:26:13.484Z,7
2023-02-18T10:27:22.068Z,6
2023-02-18T10:28:34.413Z,9
2023-02-18T10:29:41.584Z,9
2023-02-18T10:30:49.581Z,11
2023-02-18T10:32:01.876Z,13
2023-02-18T10:33:22.525Z,9
2023-02-18T10:34:32.776Z,9
2023-02-18T10:35:45.308Z,10
2023-02-18T10:36:59.609Z,7
2023-02-18T10:38:15.164Z,8
2023-02-18T10:39:29.980Z,9
2023-02-18T10:40:45.681Z,8
2023-02-18T10:42:05.357Z,8
2023-02-18T10:43:21.184Z,9
2023-02-18T10:44:37.335Z,10
2023-02-18T10:45:54.448Z,9
2023-02-18T10:47:11.131Z,7
2023-02-18T10:48:27.612Z,10
2023-02-18T10:49:34.938Z,9
2023-02-18T10:50:53.099Z,8
2023-02-18T10:52:00.724Z,9
2023-02-18T10:53:07.798Z,7
2023-02-18T10:54:19.959Z,9
2023-02-18T10:55:27.967Z,11
2023-02-18T10:56:39.313Z,13
2023-02-18T10:57:51.450Z,23
2023-02-18T10:59:11.423Z,40
2023-02-18T11:00:25.123Z,37
2023-02-18T11:01:35.362Z,22
2023-02-18T11:02:45.202Z,29
2023-02-18T11:04:25.036Z,15
2023-02-18T11:05:40.625Z,17
2023-02-18T11:06:48.910Z,18
2023-02-18T11:07:56.430Z,16
2023-02-18T11:09:04.799Z,40
2023-02-18T11:10:18.719Z,28
2023-02-18T11:11:23.058Z,28
2023-02-18T11:12:32.948Z,85
2023-02-18T11:13:46.393Z,34
2023-02-18T11:14:59.458Z,24
2023-02-18T11:16:21.070Z,64
2023-02-18T11:17:30.123Z,14
2023-02-18T11:18:38.729Z,34
2023-02-18T11:19:47.584Z,48
2023-02-18T11:21:02.930Z,49
2023-02-18T11:22:10.751Z,21
2023-02-18T11:23:29.480Z,26
2023-02-18T11:24:37.164Z,18
2023-02-18T11:25:45.878Z,15
2023-02-18T11:27:01.412Z,17
2023-02-18T11:28:12.619Z,25
2023-02-18T11:29:20.782Z,21
2023-02-18T11:30:33.314Z,16
2023-02-18T11:31:45.827Z,20
2023-02-18T11:32:56.968Z,19
2023-02-18T11:34:13.216Z,12
2023-02-18T11:35:21.714Z,11
2023-02-18T11:36:29.200Z,8
2023-02-18T11:37:38.598Z,8
2023-02-18T11:38:49.440Z,7
2023-02-18T11:40:20.694Z,9
2023-02-18T11:41:29.521Z,12
2023-02-18T11:42:42.845Z,12
2023-02-18T11:44:01.464Z,16
2023-02-18T11:45:14.967Z,13
2023-02-18T11:46:35.930Z,12
2023-02-18T11:47:43.284Z,10
2023-02-18T11:48:54.855Z,11
2023-02-18T11:50:10.476Z,11
2023-02-18T11:51:19.082Z,11
2023-02-18T11:52:30.347Z,10
2023-02-18T11:53:42.846Z,12
2023-02-18T11:55:03.505Z,10
2023-02-18T11:56:23.831Z,11
2023-02-18T11:57:40.738Z,9
2023-02-18T11:58:54.482Z,12
2023-02-18T12:00:02.886Z,16
2023-02-18T12:03:11.053Z,16
2023-02-18T12:04:40.563Z,13
2023-02-18T12:06:09.925Z,13
2023-02-18T12:09:34.873Z,9
2023-02-18T12:14:36.031Z,10
2023-02-18T12:20:35.121Z,10
2023-02-18T12:22:58.019Z,11
2023-02-18T12:31:52.372Z,23
2023-02-18T12:36:06.123Z,26
2023-02-18T12:39:21.415Z,27
2023-02-18T12:45:54.869Z,22
2023-02-18T12:48:18.081Z,24
2023-02-18T12:59:32.821Z,28
2023-02-18T13:02:20.541Z,33
2023-02-18T13:07:52.604Z,35
2023-02-18T13:17:07.518Z,31
2023-02-18T13:21:37.321Z,35
2023-02-18T13:29:54.947Z,32
2023-02-18T13:31:40.380Z,30
2023-02-18T13:34:24.731Z,28
2023-02-18T13:36:45.528Z,28
2023-02-18T13:38:10.099Z,24
2023-02-18T13:39:27.858Z,26
2023-02-18T13:40:39.657Z,26
2023-02-18T13:42:46.975Z,24
2023-02-18T13:56:37.957Z,22
2023-02-18T13:57:54.663Z,25
2023-02-18T13:59:14.515Z,29
2023-02-18T14:00:42.675Z,29
2023-02-18T14:01:57.466Z,28
2023-02-18T14:03:22.817Z,30
2023-02-18T14:05:18.952Z,32
2023-02-18T14:06:52.768Z,29
2023-02-18T14:08:26.187Z,28
2023-02-18T14:09:43.973Z,27
2023-02-18T14:11:53.783Z,26
2023-02-18T14:13:23.463Z,24
2023-02-18T14:15:37.165Z,26
2023-02-18T14:17:02.491Z,22
2023-02-18T14:19:09.048Z,21
2023-02-18T14:20:33.691Z,22
2023-02-18T14:21:59.033Z,21
2023-02-18T14:23:47.860Z,23
2023-02-18T14:26:08.555Z,21
2023-02-18T14:30:37.633Z,21
2023-02-18T14:33:43.049Z,21
2023-02-18T14:39:00.987Z,24
2023-02-18T14:42:37.659Z,24
2023-02-18T14:46:59.304Z,19
2023-02-18T14:48:14.275Z,22
2023-02-18T14:51:58.170Z,20
2023-02-18T15:01:16.380Z,19
2023-02-18T15:04:22.982Z,19
2023-02-18T15:13:46.706Z,21
2023-02-18T15:15:35.312Z,21
2023-02-18T15:19:13.349Z,19
2023-02-18T15:28:28.537Z,19
2023-02-18T15:37:59.290Z,19
2023-02-18T15:39:56.147Z,20
2023-02-18T15:42:29.001Z,21
2023-02-18T15:50:29.830Z,23
2023-02-18T15:53:10.153Z,19
2023-02-18T15:58:10.062Z,16
2023-02-18T16:06:01.536Z,14
2023-02-18T16:08:40.422Z,15
2023-02-18T16:11:45.334Z,16
2023-02-18T16:15:20.127Z,15
2023-02-18T16:16:47.718Z,14
2023-02-18T16:17:57.666Z,20
2023-02-18T16:23:17.300Z,15
2023-02-18T16:24:25.343Z,18
2023-02-18T16:29:31.658Z,15
2023-02-18T16:33:31.888Z,14
2023-02-18T16:38:34.649Z,15
2023-02-18T16:43:14.823Z,13
2023-02-18T16:48:42.355Z,12
2023-02-18T16:57:48.337Z,13
2023-02-18T17:00:24.950Z,12
2023-02-18T17:02:10.098Z,13
2023-02-18T17:04:13.941Z,11
2023-02-18T17:07:32.903Z,12
2023-02-18T17:09:29.323Z,12
2023-02-18T17:12:25.003Z,13
2023-02-18T17:14:12.763Z,15
2023-02-18T17:18:31.615Z,21
2023-02-18T17:21:13.389Z,25
2023-02-18T17:23:35.651Z,29
2023-02-18T17:25:48.159Z,26
2023-02-18T17:30:52.943Z,18
2023-02-18T17:35:02.466Z,17
2023-02-18T17:37:32.550Z,19
2023-02-18T17:46:01.676Z,16
2023-02-18T17:49:11.348Z,18
2023-02-18T17:51:08.802Z,31
2023-02-18T17:57:28.309Z,17
2023-02-18T18:00:44.980Z,23
2023-02-18T18:06:16.725Z,17
2023-02-18T18:13:27.665Z,12
2023-02-18T18:14:43.617Z,11
2023-02-18T18:17:13.152Z,13
2023-02-18T18:18:56.635Z,12
2023-02-18T18:20:16.279Z,12
2023-02-18T18:21:28.019Z,11
2023-02-18T18:22:56.643Z,11
2023-02-18T18:24:03.951Z,11
2023-02-18T18:25:12.696Z,11
2023-02-18T18:27:09.863Z,14
2023-02-18T18:28:19.670Z,11
2023-02-18T18:29:36.185Z,14
2023-02-18T18:30:53.899Z,13
2023-02-18T18:32:04.390Z,14
2023-02-18T18:33:12.372Z,13
2023-02-18T18:35:55.888Z,13
2023-02-18T18:37:51.337Z,14
2023-02-18T18:40:03.217Z,13
2023-02-18T18:41:11.195Z,14
2023-02-18T18:43:02.739Z,13
2023-02-18T18:44:10.611Z,15
2023-02-18T18:47:38.863Z,12
2023-02-18T18:53:20.507Z,14
2023-02-18T18:56:06.044Z,9
2023-02-18T18:59:41.119Z,24
2023-02-18T19:00:57.793Z,11
2023-02-18T19:02:21.730Z,8
2023-02-18T19:05:21.189Z,10
2023-02-18T19:06:34.625Z,10
2023-02-18T19:08:11.220Z,13
2023-02-18T19:09:19.281Z,12
2023-02-18T19:10:30.723Z,10
2023-02-18T19:12:12.854Z,12
2023-02-18T19:14:38.989Z,10
2023-02-18T19:18:09.693Z,8
2023-02-18T19:28:17.631Z,7
2023-02-18T19:34:03.909Z,7
2023-02-18T19:45:07.261Z,8
2023-02-18T19:47:07.483Z,7
2023-02-18T19:50:52.501Z,8
2023-02-18T19:52:53.106Z,8
2023-02-18T20:02:41.410Z,6
2023-02-18T20:04:19.486Z,7
2023-02-18T20:19:49.179Z,8
2023-02-18T20:24:55.197Z,9
2023-02-18T20:32:45.715Z,6
2023-02-18T20:39:58.924Z,5
2023-02-18T20:42:08.138Z,7
2023-02-18T20:44:41.376Z,6
2023-02-18T20:47:10.446Z,4
2023-02-18T20:50:56.979Z,4
2023-02-18T20:53:03.515Z,4
2023-02-18T20:55:49.249Z,4
2023-02-18T20:56:57.069Z,4
2023-02-18T20:58:05.554Z,4
2023-02-18T20:59:55.549Z,4
2023-02-18T21:02:41.429Z,5
2023-02-18T21:03:53.305Z,4
2023-02-18T21:05:05.532Z,7
2023-02-18T21:06:16.041Z,7
2023-02-18T21:07:52.686Z,5
2023-02-18T21:09:38.500Z,4
2023-02-18T21:11:08.724Z,4
2023-02-18T21:14:49.164Z,6
2023-02-18T21:15:56.804Z,5
2023-02-18T21:17:33.319Z,4
2023-02-18T21:18:41.196Z,5
2023-02-18T21:21:15.959Z,5
2023-02-18T21:26:09.325Z,5
2023-02-18T21:27:37.951Z,5
2023-02-18T21:30:24.881Z,6
2023-02-18T21:34:03.838Z,6
2023-02-18T21:38:23.051Z,5
2023-02-18T21:40:18.951Z,5
2023-02-18T21:43:03.762Z,5
2023-02-18T21:46:05.186Z,6
2023-02-18T21:47:21.927Z,5
2023-02-18T21:50:50.794Z,7
2023-02-18T21:53:10.428Z,7
2023-02-18T21:55:30.700Z,6
2023-02-18T22:05:42.727Z,6
2023-02-18T22:14:35.252Z,8
2023-02-18T22:16:12.648Z,7
2023-02-18T22:20:33.301Z,6
2023-02-18T22:22:12.722Z,7
2023-02-18T22:23:50.853Z,6
2023-02-18T22:28:17.757Z,8
2023-02-18T22:32:40.510Z,6
2023-02-18T22:35:17.566Z,7
2023-02-18T22:36:28.422Z,8
2023-02-18T22:37:40.928Z,11
2023-02-18T22:42:49.571Z,6
2023-02-18T22:44:01.390Z,6
2023-02-18T22:49:11.655Z,5
2023-02-18T22:50:24.126Z,5
2023-02-18T22:52:02.499Z,5
2023-02-18T22:55:29.756Z,8
2023-02-18T23:00:39.922Z,5
2023-02-18T23:05:26.167Z,5
2023-02-18T23:08:44.099Z,6
2023-02-18T23:11:12.058Z,5
2023-02-18T23:15:43.492Z,7
2023-02-18T23:20:14.191Z,6
2023-02-18T23:25:43.592Z,5
2023-02-18T23:29:56.270Z,6
2023-02-18T23:34:41.545Z,5
2023-02-18T23:35:48.666Z,4
2023-02-18T23:38:52.072Z,4
2023-02-18T23:42:07.807Z,5
2023-02-18T23:44:54.832Z,5
2023-02-18T23:46:25.435Z,5
2023-02-18T23:50:12.059Z,4
2023-02-18T23:52:02.036Z,6
2023-02-18T23:54:42.873Z,11
2023-02-18T23:59:18.030Z,5
